createdAt,value
2018-11-07T00:01:14.860Z,78.00
2018-11-07T00:03:43.528Z,78.20
2018-11-07T00:06:12.436Z,77.90
2018-11-07T00:08:41.148Z,78.22
2018-11-07T00:11:09.864Z,78.04
2018-11-07T00:13:38.565Z,78.84
2018-11-07T00:16:07.357Z,78.76
2018-11-07T00:18:36.052Z,78.80
2018-11-07T00:21:05.255Z,79.60
2018-11-07T00:23:34.437Z,79.69
2018-11-07T00:26:03.152Z,79.64
2018-11-07T00:28:32.126Z,79.22
2018-11-07T00:31:00.996Z,79.66
2018-11-07T00:33:29.824Z,79.79
2018-11-07T00:35:58.534Z,79.46
2018-11-07T00:38:27.233Z,79.53
2018-11-07T00:40:56.193Z,79.78
2018-11-07T00:43:24.898Z,79.31
2018-11-07T00:45:53.629Z,79.30
2018-11-07T00:48:22.348Z,79.74
2018-11-07T00:50:51.048Z,79.63
2018-11-07T00:53:19.756Z,79.95
2018-11-07T00:56:10.867Z,79.38
2018-11-07T00:58:39.708Z,79.97
2018-11-07T01:01:27.976Z,79.73
2018-11-07T01:06:50.625Z,79.65
2018-11-07T01:09:19.379Z,80.03
2018-11-07T01:11:48.142Z,80.56
2018-11-07T01:14:16.844Z,80.04
2018-11-07T01:16:45.711Z,79.61
2018-11-07T01:19:14.371Z,79.70
2018-11-07T01:21:43.091Z,80.35
2018-11-07T01:24:11.986Z,80.58
2018-11-07T01:26:40.724Z,80.42
2018-11-07T01:29:09.516Z,80.69
2018-11-07T01:31:38.382Z,80.81
2018-11-07T01:34:07.359Z,80.96
2018-11-07T01:36:36.083Z,81.05
2018-11-07T01:39:07.142Z,81.90
2018-11-07T01:41:35.912Z,80.80
2018-11-07T01:44:05.059Z,80.86
2018-11-07T01:46:33.760Z,81.21
2018-11-07T01:49:02.563Z,80.92
2018-11-07T01:51:31.557Z,80.86
2018-11-07T01:54:00.272Z,81.34
2018-11-07T01:56:28.979Z,81.65
2018-11-07T01:58:58.208Z,81.40
2018-11-07T02:01:27.388Z,80.99
2018-11-07T02:03:56.208Z,81.52
2018-11-07T02:06:24.920Z,81.30
2018-11-07T02:08:53.636Z,80.73
2018-11-07T02:11:22.337Z,80.77
2018-11-07T02:13:51.042Z,81.53
2018-11-07T02:16:19.760Z,80.99
2018-11-07T02:18:48.484Z,81.19
2018-11-07T02:21:17.319Z,80.36
2018-11-07T02:23:46.300Z,80.19
2018-11-07T02:26:15.315Z,80.39
2018-11-07T02:28:44.284Z,80.61
2018-11-07T02:31:13.157Z,80.55
2018-11-07T02:33:41.864Z,80.27
2018-11-07T02:36:10.753Z,80.36
2018-11-07T02:38:39.409Z,79.70
2018-11-07T02:41:08.143Z,79.38
2018-11-07T02:43:37.032Z,79.87
2018-11-07T02:46:06.384Z,79.71
2018-11-07T02:48:55.257Z,79.49
2018-11-07T02:51:37.771Z,79.23
2018-11-07T02:54:06.516Z,79.64
2018-11-07T02:56:35.231Z,79.65
2018-11-07T02:59:04.883Z,79.45
2018-11-07T03:01:34.342Z,79.18
2018-11-07T03:04:03.060Z,79.37
2018-11-07T03:06:31.784Z,78.96
2018-11-07T03:09:00.519Z,79.31
2018-11-07T03:11:29.236Z,79.84
2018-11-07T03:13:57.943Z,79.52
2018-11-07T03:16:33.267Z,79.80
2018-11-07T03:19:02.000Z,79.70
2018-11-07T03:21:30.712Z,80.28
2018-11-07T03:23:59.443Z,80.51
2018-11-07T03:26:28.176Z,80.32
2018-11-07T03:28:56.908Z,80.48
2018-11-07T03:34:22.248Z,80.68
2018-11-07T03:36:51.270Z,79.80
2018-11-07T03:39:19.981Z,80.05
2018-11-07T03:41:48.704Z,80.19
2018-11-07T03:44:17.420Z,79.42
2018-11-07T03:46:46.185Z,79.98
2018-11-07T03:49:14.904Z,79.87
2018-11-07T03:51:43.612Z,79.82
2018-11-07T03:54:12.348Z,79.72
2018-11-07T03:56:41.062Z,79.68
2018-11-07T03:59:10.075Z,79.50
2018-11-07T04:01:38.808Z,79.21
2018-11-07T04:04:07.496Z,79.50
2018-11-07T04:06:36.222Z,79.85
2018-11-07T04:09:08.500Z,79.75
2018-11-07T04:11:37.347Z,79.38
2018-11-07T04:14:06.088Z,78.81
2018-11-07T04:16:34.852Z,78.39
2018-11-07T04:19:03.571Z,78.91
2018-11-07T04:21:32.533Z,79.79
2018-11-07T04:24:02.528Z,79.73
2018-11-07T04:26:32.640Z,80.15
2018-11-07T04:29:01.667Z,80.10
2018-11-07T04:31:30.924Z,79.97
2018-11-07T04:33:59.852Z,80.11
2018-11-07T04:36:28.594Z,80.01
2018-11-07T04:38:57.318Z,80.02
2018-11-07T04:41:26.012Z,79.56
2018-11-07T04:43:54.700Z,79.64
2018-11-07T04:46:23.439Z,79.55
2018-11-07T04:48:52.400Z,79.22
2018-11-07T04:51:21.130Z,78.93
2018-11-07T04:53:49.865Z,79.66
2018-11-07T04:56:18.588Z,79.16
2018-11-07T04:58:47.284Z,79.58
2018-11-07T05:01:16.092Z,79.24
2018-11-07T05:03:44.829Z,78.82
2018-11-07T05:06:13.545Z,79.37
2018-11-07T05:08:42.507Z,79.06
2018-11-07T05:11:11.320Z,78.66
2018-11-07T05:16:33.365Z,78.89
2018-11-07T05:19:02.367Z,78.85
2018-11-07T05:21:31.376Z,79.20
2018-11-07T05:24:00.169Z,79.75
2018-11-07T05:26:28.850Z,79.81
2018-11-07T05:28:57.915Z,79.77
2018-11-07T05:31:26.872Z,79.60
2018-11-07T05:33:55.897Z,79.97
2018-11-07T05:36:24.613Z,79.71
2018-11-07T05:38:53.339Z,79.61
2018-11-07T05:41:22.079Z,76.56
2018-11-07T05:43:51.092Z,78.75
2018-11-07T05:46:19.827Z,78.84
2018-11-07T05:48:48.591Z,78.81
2018-11-07T05:51:17.427Z,79.58
2018-11-07T05:53:46.316Z,79.61
2018-11-07T05:56:15.030Z,79.16
2018-11-07T05:58:43.977Z,79.05
2018-11-07T06:01:12.767Z,79.09
2018-11-07T06:03:41.488Z,79.45
2018-11-07T06:06:10.204Z,79.58
2018-11-07T06:08:38.913Z,79.26
2018-11-07T06:11:08.764Z,79.39
2018-11-07T06:13:37.477Z,79.08
2018-11-07T06:16:07.047Z,79.28
2018-11-07T06:18:35.755Z,79.31
2018-11-07T06:21:05.295Z,79.39
2018-11-07T06:23:34.036Z,80.04
2018-11-07T06:26:02.773Z,80.21
2018-11-07T06:28:31.485Z,80.16
2018-11-07T06:31:00.194Z,80.28
2018-11-07T06:33:29.232Z,80.48
2018-11-07T06:35:57.971Z,80.79
2018-11-07T06:38:26.668Z,80.49
2018-11-07T06:40:55.369Z,80.21
2018-11-07T06:43:24.082Z,80.39
2018-11-07T06:45:52.792Z,80.53
2018-11-07T06:48:21.524Z,80.52
2018-11-07T06:50:50.235Z,80.45
2018-11-07T06:53:18.966Z,80.20
2018-11-07T06:55:47.866Z,80.57
2018-11-07T06:58:16.866Z,80.20
2018-11-07T07:00:45.724Z,80.19
2018-11-07T07:03:14.438Z,79.81
2018-11-07T07:05:43.143Z,79.81
2018-11-07T07:08:11.858Z,79.33
2018-11-07T07:10:40.775Z,79.85
2018-11-07T07:13:09.691Z,79.28
2018-11-07T07:15:38.375Z,79.62
2018-11-07T07:18:07.150Z,79.97
2018-11-07T07:20:35.804Z,79.69
2018-11-07T07:23:04.928Z,79.64
2018-11-07T07:25:33.666Z,78.92
2018-11-07T07:28:02.350Z,78.97
2018-11-07T07:30:31.111Z,78.95
2018-11-07T07:32:59.908Z,78.88
2018-11-07T07:35:28.570Z,79.00
2018-11-07T07:37:57.370Z,78.90
2018-11-07T07:40:26.080Z,78.61
2018-11-07T07:43:06.057Z,79.21
2018-11-07T07:45:34.805Z,78.76
2018-11-07T07:48:03.496Z,78.11
2018-11-07T07:50:32.195Z,78.69
2018-11-07T07:53:00.958Z,78.52
2018-11-07T07:55:29.628Z,78.23
2018-11-07T07:57:58.331Z,78.27
2018-11-07T08:00:27.069Z,77.90
2018-11-07T08:02:55.873Z,77.79
2018-11-07T08:05:24.578Z,77.62
2018-11-07T08:07:53.424Z,77.42
2018-11-07T08:10:22.646Z,77.32
2018-11-07T08:12:51.711Z,77.16
2018-11-07T08:15:20.560Z,76.79
2018-11-07T08:17:49.253Z,77.05
2018-11-07T08:20:18.791Z,76.70
2018-11-07T08:22:48.222Z,76.91
2018-11-07T08:25:17.153Z,76.44
2018-11-07T08:27:45.841Z,76.11
2018-11-07T08:30:15.756Z,75.99
2018-11-07T08:32:44.480Z,75.78
2018-11-07T08:35:13.990Z,75.96
2018-11-07T08:37:44.208Z,75.53
2018-11-07T08:40:16.248Z,76.75
2018-11-07T08:42:44.986Z,75.88
2018-11-07T08:45:14.032Z,75.45
2018-11-07T08:47:43.384Z,74.69
2018-11-07T08:50:14.252Z,74.78
2018-11-07T08:52:43.873Z,74.48
2018-11-07T08:55:14.182Z,73.92
2018-11-07T08:57:42.718Z,73.71
2018-11-07T09:00:13.537Z,73.27
2018-11-07T09:02:43.130Z,73.40
2018-11-07T09:05:12.526Z,73.85
2018-11-07T09:07:42.013Z,73.37
2018-11-07T09:10:12.086Z,74.04
2018-11-07T09:12:41.038Z,73.05
2018-11-07T09:15:12.886Z,73.27
2018-11-07T09:17:41.932Z,72.66
2018-11-07T09:20:13.872Z,72.75
2018-11-07T09:22:53.044Z,71.80
2018-11-07T09:25:21.763Z,72.62
2018-11-07T09:27:50.472Z,71.65
2018-11-07T09:30:20.572Z,71.85
2018-11-07T09:32:49.348Z,70.96
2018-11-07T09:35:18.445Z,70.84
2018-11-07T09:37:47.161Z,70.80
2018-11-07T09:40:17.992Z,69.71
2018-11-07T09:42:47.388Z,69.60
2018-11-07T09:45:17.400Z,69.40
2018-11-07T09:47:46.589Z,70.06
2018-11-07T09:50:16.209Z,69.86
2018-11-07T09:52:45.336Z,69.34
2018-11-07T09:55:15.304Z,69.73
2018-11-07T09:57:57.137Z,69.55
2018-11-07T10:00:25.822Z,69.04
2018-11-07T10:02:54.548Z,68.52
2018-11-07T10:05:23.270Z,69.03
2018-11-07T10:07:52.000Z,69.10
2018-11-07T10:10:21.753Z,68.20
2018-11-07T10:12:50.649Z,68.07
2018-11-07T10:15:19.770Z,67.65
2018-11-07T10:17:48.496Z,67.77
2018-11-07T10:20:19.473Z,68.15
2018-11-07T10:22:48.697Z,67.94
2018-11-07T10:25:17.659Z,67.59
2018-11-07T10:27:47.159Z,67.83
2018-11-07T10:30:16.930Z,67.09
2018-11-07T10:32:47.007Z,67.41
2018-11-07T10:35:15.781Z,68.11
2018-11-07T10:37:44.732Z,67.74
2018-11-07T10:40:15.353Z,66.92
2018-11-07T10:42:44.458Z,66.56
2018-11-07T10:45:13.288Z,66.27
2018-11-07T10:47:43.155Z,65.87
2018-11-07T10:50:12.803Z,65.80
2018-11-07T10:52:42.384Z,64.64
2018-11-07T10:55:12.240Z,65.09
2018-11-07T10:57:41.121Z,64.43
2018-11-07T11:00:16.477Z,64.54
2018-11-07T11:02:47.502Z,64.23
2018-11-07T11:05:17.692Z,64.50
2018-11-07T11:07:46.368Z,64.24
2018-11-07T11:10:15.280Z,64.52
2018-11-07T11:12:44.891Z,63.68
2018-11-07T11:15:13.596Z,63.80
2018-11-07T11:17:42.303Z,63.55
2018-11-07T11:20:12.479Z,62.84
2018-11-07T11:22:41.446Z,63.52
2018-11-07T11:25:10.594Z,63.84
2018-11-07T11:27:39.641Z,62.22
2018-11-07T11:30:09.077Z,62.26
2018-11-07T11:32:38.004Z,61.37
2018-11-07T11:35:07.608Z,61.09
2018-11-07T11:37:36.238Z,61.31
2018-11-07T11:40:06.099Z,59.50
2018-11-07T11:42:35.647Z,59.61
2018-11-07T11:45:05.488Z,59.79
2018-11-07T11:47:34.194Z,59.58
2018-11-07T11:50:03.060Z,58.97
2018-11-07T11:52:31.992Z,59.62
2018-11-07T11:55:00.709Z,58.10
2018-11-07T11:57:29.433Z,56.93
2018-11-07T12:02:54.689Z,55.42
2018-11-07T12:05:23.412Z,55.06
2018-11-07T12:07:52.114Z,54.55
2018-11-07T12:10:23.481Z,55.35
2018-11-07T12:12:55.431Z,55.88
2018-11-07T12:18:20.652Z,55.18
2018-11-07T12:20:49.620Z,55.26
2018-11-07T12:23:18.328Z,55.56
2018-11-07T12:25:47.035Z,54.89
2018-11-07T12:28:15.740Z,54.41
2018-11-07T12:30:44.715Z,54.13
2018-11-07T12:33:13.413Z,54.37
2018-11-07T12:35:42.118Z,55.38
2018-11-07T12:38:10.833Z,53.89
2018-11-07T12:40:39.824Z,53.21
2018-11-07T12:43:08.548Z,53.91
2018-11-07T12:48:37.659Z,53.52
2018-11-07T12:51:28.192Z,54.17
2018-11-07T12:54:08.464Z,54.79
2018-11-07T12:56:58.596Z,53.33
2018-11-07T12:59:40.503Z,53.18
2018-11-07T13:02:15.901Z,53.23
2018-11-07T13:04:44.947Z,53.92
2018-11-07T13:07:13.608Z,54.20
2018-11-07T13:09:42.313Z,54.03
2018-11-07T13:15:06.428Z,53.53
2018-11-07T13:17:35.384Z,54.25
2018-11-07T13:20:07.265Z,53.94
2018-11-07T13:22:36.126Z,53.54
2018-11-07T13:25:05.480Z,54.50
2018-11-07T13:27:34.229Z,54.51
2018-11-07T13:30:02.949Z,54.38
2018-11-07T13:32:31.669Z,55.05
2018-11-07T13:35:00.425Z,55.59
2018-11-07T13:37:29.358Z,55.33
2018-11-07T13:39:57.836Z,55.16
2018-11-07T13:42:26.557Z,55.41
2018-11-07T13:44:55.511Z,54.74
2018-11-07T13:47:24.219Z,55.54
2018-11-07T13:49:52.912Z,55.33
2018-11-07T13:52:21.653Z,55.48
2018-11-07T13:54:50.372Z,55.45
2018-11-07T13:57:19.106Z,55.11
2018-11-07T13:59:47.805Z,55.19
2018-11-07T14:02:16.528Z,55.04
2018-11-07T14:04:45.463Z,55.09
2018-11-07T14:07:14.321Z,55.47
2018-11-07T14:09:43.047Z,55.50
2018-11-07T14:12:12.020Z,55.71
2018-11-07T14:14:40.732Z,54.47
2018-11-07T14:17:09.467Z,54.82
2018-11-07T14:19:38.433Z,54.00
2018-11-07T14:22:07.312Z,53.75
2018-11-07T14:24:36.039Z,54.32
2018-11-07T14:27:04.777Z,53.79
2018-11-07T14:29:33.494Z,53.99
2018-11-07T14:32:02.363Z,54.08
2018-11-07T14:34:31.056Z,54.04
2018-11-07T14:36:59.812Z,54.39
2018-11-07T14:39:28.722Z,53.86
2018-11-07T14:41:57.407Z,54.62
2018-11-07T14:44:26.117Z,54.76
2018-11-07T14:46:54.876Z,55.08
2018-11-07T14:49:23.520Z,55.45
2018-11-07T14:51:52.227Z,55.17
2018-11-07T14:54:21.204Z,55.44
2018-11-07T14:56:49.869Z,55.45
2018-11-07T14:59:18.580Z,55.60
2018-11-07T15:01:47.292Z,55.64
2018-11-07T15:04:16.205Z,56.44
2018-11-07T15:06:44.914Z,56.68
2018-11-07T15:09:13.661Z,56.61
2018-11-07T15:11:43.425Z,56.66
2018-11-07T15:14:12.305Z,57.01
2018-11-07T15:16:41.009Z,56.24
2018-11-07T15:19:09.781Z,56.78
2018-11-07T15:21:38.480Z,56.95
2018-11-07T15:24:07.188Z,56.42
2018-11-07T15:26:35.893Z,56.09
2018-11-07T15:29:04.995Z,56.26
2018-11-07T15:31:33.943Z,56.60
2018-11-07T15:34:02.681Z,56.77
2018-11-07T15:36:31.422Z,57.18
2018-11-07T15:39:00.240Z,56.41
2018-11-07T15:41:28.972Z,57.02
2018-11-07T15:43:57.677Z,57.38
2018-11-07T15:46:26.395Z,57.54
2018-11-07T15:48:55.105Z,56.72
2018-11-07T15:51:29.326Z,57.41
2018-11-07T15:53:58.029Z,57.14
2018-11-07T15:56:26.720Z,57.56
2018-11-07T15:58:55.444Z,57.07
2018-11-07T16:01:24.151Z,57.48
2018-11-07T16:03:56.313Z,57.20
2018-11-07T16:06:25.581Z,57.72
2018-11-07T16:08:58.936Z,57.44
2018-11-07T16:11:29.092Z,57.43
2018-11-07T16:13:57.800Z,57.57
2018-11-07T16:16:27.404Z,57.56
2018-11-07T16:18:56.396Z,58.51
2018-11-07T16:21:25.193Z,58.46
2018-11-07T16:23:54.338Z,57.73
2018-11-07T16:26:23.052Z,58.04
2018-11-07T16:28:51.800Z,58.61
2018-11-07T16:31:20.797Z,57.79
2018-11-07T16:36:47.641Z,58.19
2018-11-07T16:39:16.621Z,58.13
2018-11-07T16:41:45.775Z,58.50
2018-11-07T16:44:20.163Z,58.63
2018-11-07T16:46:49.821Z,58.27
2018-11-07T16:49:18.488Z,59.09
2018-11-07T16:51:47.399Z,60.09
2018-11-07T16:54:17.593Z,59.45
2018-11-07T16:56:46.382Z,59.35
2018-11-07T16:59:15.456Z,59.23
2018-11-07T17:01:44.063Z,59.72
2018-11-07T17:04:12.971Z,59.96
2018-11-07T17:06:41.776Z,60.55
2018-11-07T17:09:11.924Z,60.61
2018-11-07T17:11:41.380Z,61.27
2018-11-07T17:14:10.264Z,61.62
2018-11-07T17:16:39.179Z,61.96
2018-11-07T17:19:07.919Z,61.88
2018-11-07T17:21:36.868Z,62.42
2018-11-07T17:24:06.006Z,63.07
2018-11-07T17:26:34.741Z,64.02
2018-11-07T17:29:03.400Z,63.99
2018-11-07T17:31:32.204Z,64.34
2018-11-07T17:34:00.828Z,64.76
2018-11-07T17:36:29.564Z,65.43
2018-11-07T17:38:58.584Z,65.23
2018-11-07T17:41:27.276Z,65.46
2018-11-07T17:43:55.993Z,65.82
2018-11-07T17:46:24.908Z,65.95
2018-11-07T17:48:53.621Z,66.18
2018-11-07T17:51:22.608Z,66.37
2018-11-07T17:53:51.357Z,66.15
2018-11-07T17:56:20.095Z,65.95
2018-11-07T17:58:49.000Z,66.40
2018-11-07T18:01:17.956Z,66.62
2018-11-07T18:03:47.056Z,66.24
2018-11-07T18:06:15.952Z,66.79
2018-11-07T18:08:44.669Z,66.67
2018-11-07T18:11:30.626Z,66.36
2018-11-07T18:14:19.607Z,66.85
2018-11-07T18:16:48.526Z,67.30
2018-11-07T18:19:17.207Z,67.03
2018-11-07T18:24:42.541Z,67.05
2018-11-07T18:27:11.321Z,66.74
2018-11-07T18:29:40.002Z,66.69
2018-11-07T18:38:12.581Z,66.66
2018-11-07T18:40:41.572Z,66.75
2018-11-07T18:43:13.581Z,67.14
2018-11-07T18:45:43.467Z,67.34
2018-11-07T18:48:12.382Z,67.14
2018-11-07T18:50:41.142Z,66.83
2018-11-07T18:53:09.806Z,67.24
2018-11-07T18:55:38.631Z,66.79
2018-11-07T18:58:07.635Z,66.73
2018-11-07T19:00:37.196Z,67.35
2018-11-07T19:03:07.428Z,67.05
2018-11-07T19:05:36.396Z,67.62
2018-11-07T19:08:05.399Z,67.59
2018-11-07T19:10:34.105Z,67.11
2018-11-07T19:13:03.080Z,67.44
2018-11-07T19:15:31.798Z,67.14
2018-11-07T19:18:00.760Z,67.38
2018-11-07T19:20:29.527Z,67.45
2018-11-07T19:22:58.212Z,67.23
2018-11-07T19:25:26.957Z,67.30
2018-11-07T19:27:55.680Z,66.73
2018-11-07T19:36:11.980Z,66.87
2018-11-07T19:38:45.824Z,67.54
2018-11-07T19:41:15.147Z,67.07
2018-11-07T19:43:44.040Z,67.11
2018-11-07T19:46:12.752Z,66.97
2018-11-07T19:48:41.477Z,66.88
2018-11-07T19:51:10.230Z,66.70
2018-11-07T19:53:39.284Z,66.31
2018-11-07T19:56:08.199Z,66.93
2018-11-07T19:58:37.359Z,67.15
2018-11-07T20:01:06.241Z,67.24
2018-11-07T20:03:34.935Z,66.69
2018-11-07T20:06:03.637Z,67.15
2018-11-07T20:08:32.352Z,66.59
2018-11-07T20:11:01.227Z,66.68
2018-11-07T20:13:30.199Z,66.70
2018-11-07T20:15:59.209Z,66.94
2018-11-07T20:18:27.913Z,67.09
2018-11-07T20:20:56.632Z,67.35
2018-11-07T20:23:25.472Z,66.92
2018-11-07T20:25:54.072Z,67.66
2018-11-07T20:28:22.990Z,67.21
2018-11-07T20:30:51.697Z,67.64
2018-11-07T20:33:20.601Z,67.47
2018-11-07T20:35:49.885Z,67.18
2018-11-07T20:38:19.126Z,67.96
2018-11-07T20:40:47.824Z,67.90
2018-11-07T20:43:16.545Z,67.46
2018-11-07T20:45:45.285Z,67.34
2018-11-07T20:48:14.288Z,67.86
2018-11-07T20:50:43.025Z,67.18
2018-11-07T20:53:11.925Z,67.83
2018-11-07T20:55:40.692Z,67.57
2018-11-07T20:58:09.600Z,67.35
2018-11-07T21:00:38.593Z,67.11
2018-11-07T21:03:07.960Z,67.62
2018-11-07T21:05:36.872Z,67.42
2018-11-07T21:08:05.883Z,67.42
2018-11-07T21:10:34.882Z,67.21
2018-11-07T21:13:03.857Z,67.06
2018-11-07T21:15:32.870Z,67.60
2018-11-07T21:18:01.838Z,67.71
2018-11-07T21:20:30.543Z,67.74
2018-11-07T21:22:59.256Z,67.52
2018-11-07T21:25:27.976Z,68.05
2018-11-07T21:27:56.884Z,68.06
2018-11-07T21:30:25.615Z,67.74
2018-11-07T21:32:54.565Z,67.89
2018-11-07T21:35:23.267Z,67.79
2018-11-07T21:37:51.980Z,67.71
2018-11-07T21:40:21.162Z,68.59
2018-11-07T21:42:49.988Z,67.88
2018-11-07T21:45:18.728Z,67.91
2018-11-07T21:47:47.631Z,68.58
2018-11-07T21:50:17.074Z,68.32
2018-11-07T21:52:45.761Z,68.34
2018-11-07T21:55:14.721Z,69.02
2018-11-07T21:57:43.464Z,68.65
2018-11-07T22:00:14.369Z,68.84
2018-11-07T22:02:43.621Z,68.23
2018-11-07T22:05:12.918Z,68.66
2018-11-07T22:07:41.694Z,68.84
2018-11-07T22:10:11.580Z,68.58
2018-11-07T22:12:40.287Z,68.75
2018-11-07T22:15:09.717Z,69.02
2018-11-07T22:17:38.595Z,69.28
2018-11-07T22:20:11.304Z,69.00
2018-11-07T22:22:40.873Z,69.29
2018-11-07T22:25:09.624Z,69.02
2018-11-07T22:27:38.328Z,69.28
2018-11-07T22:30:08.827Z,69.12
2018-11-07T22:32:37.815Z,68.83
2018-11-07T22:35:07.133Z,69.22
2018-11-07T22:37:36.796Z,68.88
2018-11-07T22:40:07.601Z,69.02
2018-11-07T22:42:36.941Z,69.29
2018-11-07T22:45:05.775Z,69.31
2018-11-07T22:47:34.643Z,69.41
2018-11-07T22:50:03.645Z,68.99
2018-11-07T22:52:32.456Z,69.42
2018-11-07T22:55:01.195Z,69.37
2018-11-07T22:57:30.051Z,69.60
2018-11-07T22:59:59.004Z,69.79
2018-11-07T23:02:27.728Z,69.79
2018-11-07T23:04:56.687Z,69.55
2018-11-07T23:07:25.635Z,69.94
2018-11-07T23:09:54.346Z,69.05
2018-11-07T23:12:23.050Z,69.26
2018-11-07T23:14:51.864Z,69.49
2018-11-07T23:17:20.684Z,69.27
2018-11-07T23:19:49.408Z,69.01
2018-11-07T23:22:18.123Z,69.53
2018-11-07T23:24:46.821Z,69.57
2018-11-07T23:27:15.525Z,69.29
2018-11-07T23:29:44.416Z,69.44
2018-11-07T23:32:14.926Z,69.00
2018-11-07T23:34:43.629Z,69.37
2018-11-07T23:37:12.351Z,69.62
2018-11-07T23:39:41.297Z,69.11
2018-11-07T23:42:10.017Z,69.64
2018-11-07T23:44:38.715Z,69.71
2018-11-07T23:47:07.444Z,69.36
2018-11-07T23:49:36.361Z,69.67
2018-11-07T23:52:05.824Z,69.27
2018-11-07T23:54:34.536Z,69.91
2018-11-07T23:57:03.256Z,69.57
2018-11-07T23:59:31.983Z,69.71
